createdAt,value
2019-01-22T00:00:05.348Z,1010.91
2019-01-22T00:01:05.352Z,1010.92
2019-01-22T00:02:05.361Z,1010.88
2019-01-22T00:03:05.367Z,1010.87
2019-01-22T00:04:05.373Z,1010.86
2019-01-22T00:05:05.383Z,1010.89
2019-01-22T00:06:05.387Z,1010.82
2019-01-22T00:07:05.398Z,1010.77
2019-01-22T00:08:05.406Z,1010.78
2019-01-22T00:09:05.409Z,1010.77
2019-01-22T00:10:05.434Z,1010.73
2019-01-22T00:11:05.423Z,1010.74
2019-01-22T00:12:05.447Z,1010.72
2019-01-22T00:13:05.441Z,1010.65
2019-01-22T00:14:05.453Z,1010.64
2019-01-22T00:15:05.454Z,1010.63
2019-01-22T00:16:05.462Z,1010.59
2019-01-22T00:17:05.467Z,1010.60
2019-01-22T00:18:05.479Z,1010.61
2019-01-22T00:19:05.485Z,1010.55
2019-01-22T00:20:05.491Z,1010.55
2019-01-22T00:21:05.495Z,1010.55
2019-01-22T00:22:05.511Z,1010.50
2019-01-22T00:23:05.517Z,1010.50
2019-01-22T00:24:05.521Z,1010.49
2019-01-22T00:25:05.525Z,1010.54
2019-01-22T00:26:05.533Z,1010.47
2019-01-22T00:27:05.540Z,1010.46
2019-01-22T00:28:05.544Z,1010.47
2019-01-22T00:29:05.552Z,1010.44
2019-01-22T00:30:05.558Z,1010.39
2019-01-22T00:31:05.565Z,1010.37
2019-01-22T00:32:05.574Z,1010.34
2019-01-22T00:33:05.579Z,1010.34
2019-01-22T00:34:05.588Z,1010.30
2019-01-22T00:35:05.597Z,1010.33
2019-01-22T00:36:05.600Z,1010.28
2019-01-22T00:37:05.611Z,1010.30
2019-01-22T00:38:05.618Z,1010.32
2019-01-22T00:39:05.628Z,1010.31
2019-01-22T00:40:05.630Z,1010.32
2019-01-22T00:41:05.642Z,1010.33
2019-01-22T00:42:05.648Z,1010.34
2019-01-22T00:43:05.657Z,1010.35
2019-01-22T00:44:05.659Z,1010.34
2019-01-22T00:45:05.665Z,1010.37
2019-01-22T00:46:05.676Z,1010.38
2019-01-22T00:47:05.680Z,1010.36
2019-01-22T00:48:05.687Z,1010.38
2019-01-22T00:49:05.692Z,1010.33
2019-01-22T00:50:05.701Z,1010.35
2019-01-22T00:51:05.708Z,1010.37
2019-01-22T00:52:05.714Z,1010.32
2019-01-22T00:53:09.905Z,1010.31
2019-01-22T00:54:05.726Z,1010.27
2019-01-22T00:55:05.739Z,1010.25
2019-01-22T00:56:05.749Z,1010.24
2019-01-22T00:57:05.752Z,1010.17
2019-01-22T00:58:05.756Z,1010.22
2019-01-22T00:59:05.761Z,1010.21
2019-01-22T01:00:05.770Z,1010.19
2019-01-22T01:01:05.776Z,1010.14
2019-01-22T01:02:05.783Z,1010.13
2019-01-22T01:03:05.789Z,1010.07
2019-01-22T01:04:05.795Z,1010.12
2019-01-22T01:05:05.804Z,1010.08
2019-01-22T01:06:05.808Z,1010.12
2019-01-22T01:07:05.817Z,1010.13
2019-01-22T01:08:05.825Z,1010.08
2019-01-22T01:09:05.832Z,1010.03
2019-01-22T01:10:05.836Z,1010.06
2019-01-22T01:11:05.843Z,1010.06
2019-01-22T01:12:05.854Z,1010.01
2019-01-22T01:13:05.860Z,1010.03
2019-01-22T01:14:05.881Z,1010.01
2019-01-22T01:15:05.875Z,1009.99
2019-01-22T01:16:05.881Z,1009.98
2019-01-22T01:17:05.887Z,1009.95
2019-01-22T01:18:05.895Z,1009.90
2019-01-22T01:19:05.903Z,1009.90
2019-01-22T01:20:05.904Z,1009.90
2019-01-22T01:21:05.912Z,1009.91
2019-01-22T01:22:05.920Z,1009.89
2019-01-22T01:23:05.925Z,1009.86
2019-01-22T01:24:05.935Z,1009.85
2019-01-22T01:25:05.943Z,1009.79
2019-01-22T01:26:05.946Z,1009.77
2019-01-22T01:27:05.956Z,1009.74
2019-01-22T01:28:05.958Z,1009.76
2019-01-22T01:29:05.969Z,1009.75
2019-01-22T01:30:05.976Z,1009.72
2019-01-22T01:31:05.990Z,1009.70
2019-01-22T01:32:05.990Z,1009.68
2019-01-22T01:33:05.998Z,1009.64
2019-01-22T01:34:06.002Z,1009.64
2019-01-22T01:35:06.013Z,1009.62
2019-01-22T01:36:06.015Z,1009.56
2019-01-22T01:37:06.020Z,1009.60
2019-01-22T01:38:06.030Z,1009.57
2019-01-22T01:39:06.035Z,1009.52
2019-01-22T01:40:06.043Z,1009.44
2019-01-22T01:41:06.048Z,1009.42
2019-01-22T01:42:06.054Z,1009.39
2019-01-22T01:43:06.066Z,1009.35
2019-01-22T01:44:06.067Z,1009.34
2019-01-22T01:45:06.077Z,1009.33
2019-01-22T01:46:06.084Z,1009.25
2019-01-22T01:47:06.096Z,1009.27
2019-01-22T01:48:06.100Z,1009.24
2019-01-22T01:49:06.106Z,1009.23
2019-01-22T01:50:06.109Z,1009.20
2019-01-22T01:51:06.117Z,1009.19
2019-01-22T01:52:06.125Z,1009.21
2019-01-22T01:53:06.134Z,1009.15
2019-01-22T01:54:06.140Z,1009.20
2019-01-22T01:55:06.144Z,1009.19
2019-01-22T01:56:06.157Z,1009.17
2019-01-22T01:57:06.156Z,1009.15
2019-01-22T01:58:06.162Z,1009.13
2019-01-22T01:59:06.169Z,1009.10
2019-01-22T02:00:06.177Z,1009.10
2019-01-22T02:01:06.185Z,1009.11
2019-01-22T02:02:06.292Z,1009.09
2019-01-22T02:03:06.199Z,1009.06
2019-01-22T02:04:06.204Z,1009.02
2019-01-22T02:05:06.211Z,1009.05
2019-01-22T02:06:06.215Z,1009.03
2019-01-22T02:07:06.224Z,1009.03
2019-01-22T02:08:06.227Z,1008.99
2019-01-22T02:09:06.241Z,1008.96
2019-01-22T02:10:06.246Z,1008.94
2019-01-22T02:11:06.251Z,1008.92
2019-01-22T02:12:06.255Z,1008.84
2019-01-22T02:13:06.276Z,1008.82
2019-01-22T02:14:06.267Z,1008.86
2019-01-22T02:15:06.276Z,1008.82
2019-01-22T02:16:06.297Z,1008.82
2019-01-22T02:17:06.291Z,1008.81
2019-01-22T02:18:06.295Z,1008.85
2019-01-22T02:20:06.311Z,1008.81
2019-01-22T02:21:06.320Z,1008.84
2019-01-22T02:22:06.424Z,1008.76
2019-01-22T02:23:06.331Z,1008.79
2019-01-22T02:24:06.341Z,1008.74
2019-01-22T02:25:06.341Z,1008.71
2019-01-22T02:26:06.352Z,1008.65
2019-01-22T02:27:06.357Z,1008.58
2019-01-22T02:28:06.363Z,1008.59
2019-01-22T02:29:06.366Z,1008.60
2019-01-22T02:30:06.376Z,1008.55
2019-01-22T02:31:06.384Z,1008.54
2019-01-22T02:32:06.390Z,1008.54
2019-01-22T02:33:06.393Z,1008.52
2019-01-22T02:34:06.401Z,1008.53
2019-01-22T02:35:06.409Z,1008.47
2019-01-22T02:36:06.413Z,1008.44
2019-01-22T02:37:06.424Z,1008.44
2019-01-22T02:38:06.435Z,1008.39
2019-01-22T02:39:06.434Z,1008.39
2019-01-22T02:40:06.445Z,1008.34
2019-01-22T02:41:06.444Z,1008.37
2019-01-22T02:42:06.451Z,1008.35
2019-01-22T02:43:06.464Z,1008.30
2019-01-22T02:44:06.467Z,1008.29
2019-01-22T02:45:06.477Z,1008.28
2019-01-22T02:46:06.689Z,1008.24
2019-01-22T02:47:06.488Z,1008.24
2019-01-22T02:48:06.532Z,1008.20
2019-01-22T02:49:06.500Z,1008.18
2019-01-22T02:50:06.870Z,1008.17
2019-01-22T02:51:06.535Z,1008.10
2019-01-22T02:52:06.516Z,1008.09
2019-01-22T02:53:06.526Z,1008.08
2019-01-22T02:54:06.569Z,1008.05
2019-01-22T02:55:06.543Z,1008.02
2019-01-22T02:56:06.546Z,1008.04
2019-01-22T02:57:06.558Z,1008.01
2019-01-22T02:58:06.560Z,1007.96
2019-01-22T02:59:06.571Z,1007.97
2019-01-22T03:00:06.567Z,1007.95
2019-01-22T03:01:06.575Z,1007.90
2019-01-22T03:02:06.586Z,1007.87
2019-01-22T03:03:06.592Z,1007.88
2019-01-22T03:04:06.632Z,1007.81
2019-01-22T03:05:06.784Z,1007.86
2019-01-22T03:06:07.002Z,1007.88
2019-01-22T03:07:06.756Z,1007.86
2019-01-22T03:08:06.626Z,1007.87
2019-01-22T03:09:06.629Z,1007.83
2019-01-22T03:10:06.634Z,1007.86
2019-01-22T03:11:06.641Z,1007.79
2019-01-22T03:12:06.649Z,1007.80
2019-01-22T03:13:06.650Z,1007.75
2019-01-22T03:14:06.658Z,1007.78
2019-01-22T03:15:06.669Z,1007.77
2019-01-22T03:16:06.673Z,1007.75
2019-01-22T03:17:06.676Z,1007.76
2019-01-22T03:18:06.686Z,1007.73
2019-01-22T03:19:06.946Z,1007.74
2019-01-22T03:20:06.706Z,1007.71
2019-01-22T03:21:06.702Z,1007.69
2019-01-22T03:22:06.712Z,1007.69
2019-01-22T03:23:06.719Z,1007.66
2019-01-22T03:24:06.724Z,1007.64
2019-01-22T03:25:06.728Z,1007.63
2019-01-22T03:26:06.736Z,1007.63
2019-01-22T03:27:06.739Z,1007.61
2019-01-22T03:28:06.750Z,1007.59
2019-01-22T03:29:06.753Z,1007.57
2019-01-22T03:30:06.764Z,1007.57
2019-01-22T03:31:06.770Z,1007.55
2019-01-22T03:32:06.773Z,1007.51
2019-01-22T03:33:06.782Z,1007.50
2019-01-22T03:34:06.791Z,1007.46
2019-01-22T03:35:06.794Z,1007.48
2019-01-22T03:36:06.795Z,1007.46
2019-01-22T03:37:06.802Z,1007.42
2019-01-22T03:38:06.811Z,1007.44
2019-01-22T03:39:06.819Z,1007.41
2019-01-22T03:40:06.824Z,1007.41
2019-01-22T03:41:06.829Z,1007.39
2019-01-22T03:42:06.838Z,1007.40
2019-01-22T03:43:06.844Z,1007.38
2019-01-22T03:44:06.848Z,1007.39
2019-01-22T03:45:06.852Z,1007.40
2019-01-22T03:46:06.859Z,1007.33
2019-01-22T03:47:06.892Z,1007.36
2019-01-22T03:48:06.893Z,1007.37
2019-01-22T03:49:06.883Z,1007.36
2019-01-22T03:50:06.890Z,1007.33
2019-01-22T03:51:06.894Z,1007.33
2019-01-22T03:52:06.896Z,1007.27
2019-01-22T03:53:06.905Z,1007.28
2019-01-22T03:54:06.911Z,1007.24
2019-01-22T03:55:06.918Z,1007.23
2019-01-22T03:56:06.921Z,1007.23
2019-01-22T03:57:06.927Z,1007.22
2019-01-22T03:58:06.932Z,1007.22
2019-01-22T03:59:06.940Z,1007.22
2019-01-22T04:00:06.952Z,1007.18
2019-01-22T04:01:06.957Z,1007.19
2019-01-22T04:02:06.959Z,1007.12
2019-01-22T04:03:06.969Z,1007.06
2019-01-22T04:04:06.972Z,1007.06
2019-01-22T04:05:06.977Z,1007.03
2019-01-22T04:06:06.985Z,1007.03
2019-01-22T04:07:06.991Z,1006.99
2019-01-22T04:08:06.997Z,1007.02
2019-01-22T04:09:07.003Z,1007.01
2019-01-22T04:10:07.009Z,1006.96
2019-01-22T04:11:07.018Z,1006.93
2019-01-22T04:12:07.022Z,1006.94
2019-01-22T04:13:07.029Z,1006.92
2019-01-22T04:14:07.036Z,1006.91
2019-01-22T04:15:07.042Z,1006.83
2019-01-22T04:16:07.048Z,1006.85
2019-01-22T04:17:07.054Z,1006.81
2019-01-22T04:18:07.063Z,1006.79
2019-01-22T04:19:07.065Z,1006.76
2019-01-22T04:20:07.073Z,1006.77
2019-01-22T04:21:07.079Z,1006.72
2019-01-22T04:22:07.087Z,1006.73
2019-01-22T04:23:07.093Z,1006.74
2019-01-22T04:24:07.124Z,1006.67
2019-01-22T04:25:07.106Z,1006.70
2019-01-22T04:26:07.113Z,1006.65
2019-01-22T04:27:07.121Z,1006.60
2019-01-22T04:28:07.126Z,1006.58
2019-01-22T04:29:07.130Z,1006.58
2019-01-22T04:30:07.135Z,1006.53
2019-01-22T04:31:07.143Z,1006.51
2019-01-22T04:32:07.149Z,1006.47
2019-01-22T04:33:07.154Z,1006.47
2019-01-22T04:34:07.162Z,1006.43
2019-01-22T04:35:07.179Z,1006.38
2019-01-22T04:36:07.173Z,1006.40
2019-01-22T04:37:07.177Z,1006.37
2019-01-22T04:38:07.300Z,1006.33
2019-01-22T04:39:07.190Z,1006.30
2019-01-22T04:40:07.200Z,1006.33
2019-01-22T04:41:07.205Z,1006.33
2019-01-22T04:42:07.217Z,1006.29
2019-01-22T04:43:07.218Z,1006.28
2019-01-22T04:44:07.225Z,1006.29
2019-01-22T04:45:07.226Z,1006.25
2019-01-22T04:46:07.234Z,1006.24
2019-01-22T04:47:07.241Z,1006.24
2019-01-22T04:48:07.260Z,1006.21
2019-01-22T04:49:07.255Z,1006.21
2019-01-22T04:50:07.259Z,1006.20
2019-01-22T04:51:07.274Z,1006.19
2019-01-22T04:52:07.269Z,1006.17
2019-01-22T04:53:07.287Z,1006.16
2019-01-22T04:54:09.730Z,1006.15
2019-01-22T04:55:07.292Z,1006.13
2019-01-22T04:56:07.296Z,1006.10
2019-01-22T04:57:07.301Z,1006.10
2019-01-22T04:58:07.312Z,1006.06
2019-01-22T04:59:07.313Z,1006.00
2019-01-22T05:00:07.323Z,1005.98
2019-01-22T05:01:07.329Z,1005.94
2019-01-22T05:02:07.331Z,1005.95
2019-01-22T05:03:07.337Z,1005.94
2019-01-22T05:04:07.343Z,1005.93
2019-01-22T05:05:07.367Z,1005.90
2019-01-22T05:06:07.355Z,1005.87
2019-01-22T05:07:07.364Z,1005.90
2019-01-22T05:08:07.368Z,1005.89
2019-01-22T05:09:07.374Z,1005.90
2019-01-22T05:10:08.364Z,1005.87
2019-01-22T05:11:07.388Z,1005.92
2019-01-22T05:12:07.404Z,1005.91
2019-01-22T05:13:07.400Z,1005.92
2019-01-22T05:14:07.412Z,1005.92
2019-01-22T05:15:07.418Z,1005.89
2019-01-22T05:16:07.420Z,1005.83
2019-01-22T05:17:07.418Z,1005.82
2019-01-22T05:18:07.426Z,1005.81
2019-01-22T05:19:07.434Z,1005.79
2019-01-22T05:20:07.438Z,1005.79
2019-01-22T05:21:07.448Z,1005.81
2019-01-22T05:22:07.466Z,1005.81
2019-01-22T05:23:07.686Z,1005.82
2019-01-22T05:24:07.465Z,1005.78
2019-01-22T05:25:07.472Z,1005.78
2019-01-22T05:26:07.476Z,1005.77
2019-01-22T05:27:07.484Z,1005.77
2019-01-22T05:28:07.490Z,1005.76
2019-01-22T05:29:07.493Z,1005.80
2019-01-22T05:30:07.502Z,1005.76
2019-01-22T05:31:07.511Z,1005.81
2019-01-22T05:32:07.538Z,1005.80
2019-01-22T05:33:07.520Z,1005.78
2019-01-22T05:34:07.526Z,1005.75
2019-01-22T05:35:07.530Z,1005.78
2019-01-22T05:36:07.539Z,1005.71
2019-01-22T05:37:07.626Z,1005.70
2019-01-22T05:38:07.547Z,1005.74
2019-01-22T05:39:07.570Z,1005.70
2019-01-22T05:40:07.564Z,1005.72
2019-01-22T05:41:07.568Z,1005.72
2019-01-22T05:42:07.585Z,1005.66
2019-01-22T05:43:07.590Z,1005.67
2019-01-22T05:44:07.587Z,1005.66
2019-01-22T05:45:07.594Z,1005.61
2019-01-22T05:46:07.601Z,1005.64
2019-01-22T05:47:07.624Z,1005.60
2019-01-22T05:48:13.253Z,1005.64
2019-01-22T05:49:07.616Z,1005.63
2019-01-22T05:50:07.628Z,1005.63
2019-01-22T05:51:07.630Z,1005.59
2019-01-22T05:52:07.642Z,1005.62
2019-01-22T05:53:07.666Z,1005.53
2019-01-22T05:54:07.677Z,1005.59
2019-01-22T05:55:07.671Z,1005.57
2019-01-22T05:56:07.699Z,1005.54
2019-01-22T05:57:07.699Z,1005.48
2019-01-22T05:58:07.674Z,1005.50
2019-01-22T05:59:07.677Z,1005.51
2019-01-22T06:00:07.682Z,1005.50
2019-01-22T06:01:07.700Z,1005.48
2019-01-22T06:02:07.698Z,1005.44
2019-01-22T06:03:07.706Z,1005.44
2019-01-22T06:04:07.717Z,1005.45
2019-01-22T06:05:07.726Z,1005.40
2019-01-22T06:06:07.718Z,1005.37
2019-01-22T06:07:07.725Z,1005.32
2019-01-22T06:08:07.734Z,1005.30
2019-01-22T06:09:07.735Z,1005.30
2019-01-22T06:10:07.753Z,1005.29
2019-01-22T06:11:07.752Z,1005.32
2019-01-22T06:12:07.760Z,1005.28
2019-01-22T06:13:07.821Z,1005.25
2019-01-22T06:14:07.772Z,1005.31
2019-01-22T06:15:07.781Z,1005.28
2019-01-22T06:16:07.838Z,1005.25
2019-01-22T06:17:07.789Z,1005.25
2019-01-22T06:18:07.793Z,1005.25
2019-01-22T06:19:07.798Z,1005.25
2019-01-22T06:20:07.801Z,1005.22
2019-01-22T06:21:07.809Z,1005.28
2019-01-22T06:22:07.817Z,1005.27
2019-01-22T06:23:07.842Z,1005.25
2019-01-22T06:24:07.831Z,1005.22
2019-01-22T06:25:07.833Z,1005.17
2019-01-22T06:26:07.840Z,1005.18
2019-01-22T06:27:07.851Z,1005.15
2019-01-22T06:28:07.855Z,1005.12
2019-01-22T06:29:07.860Z,1005.04
2019-01-22T06:30:07.865Z,1005.05
2019-01-22T06:31:07.877Z,1005.00
2019-01-22T06:32:07.872Z,1004.96
2019-01-22T06:33:07.879Z,1004.94
2019-01-22T06:34:07.884Z,1004.92
2019-01-22T06:35:07.898Z,1004.95
2019-01-22T06:36:07.898Z,1004.93
2019-01-22T06:37:07.903Z,1004.93
2019-01-22T06:38:07.917Z,1004.90
2019-01-22T06:39:07.915Z,1004.87
2019-01-22T06:40:07.925Z,1004.89
2019-01-22T06:41:07.924Z,1004.87
2019-01-22T06:42:07.933Z,1004.85
2019-01-22T06:43:07.939Z,1004.82
2019-01-22T06:44:07.942Z,1004.79
2019-01-22T06:45:07.943Z,1004.75
2019-01-22T06:46:07.949Z,1004.77
2019-01-22T06:47:07.955Z,1004.78
2019-01-22T06:48:07.960Z,1004.72
2019-01-22T06:49:10.371Z,1004.72
2019-01-22T06:50:07.974Z,1004.65
2019-01-22T06:51:07.977Z,1004.68
2019-01-22T06:52:07.984Z,1004.70
2019-01-22T06:53:08.289Z,1004.73
2019-01-22T06:54:07.994Z,1004.70
2019-01-22T06:55:08.002Z,1004.66
2019-01-22T06:56:08.009Z,1004.68
2019-01-22T06:57:08.015Z,1004.64
2019-01-22T06:58:08.071Z,1004.65
2019-01-22T06:59:08.027Z,1004.60
2019-01-22T07:00:08.033Z,1004.58
2019-01-22T07:01:08.036Z,1004.56
2019-01-22T07:02:08.044Z,1004.61
2019-01-22T07:03:08.086Z,1004.55
2019-01-22T07:04:08.055Z,1004.52
2019-01-22T07:05:08.065Z,1004.54
2019-01-22T07:06:08.066Z,1004.49
2019-01-22T07:07:08.074Z,1004.50
2019-01-22T07:08:08.080Z,1004.51
2019-01-22T07:09:08.096Z,1004.44
2019-01-22T07:10:08.096Z,1004.45
2019-01-22T07:11:08.099Z,1004.46
2019-01-22T07:12:08.115Z,1004.42
2019-01-22T07:13:08.110Z,1004.40
2019-01-22T07:14:08.113Z,1004.40
2019-01-22T07:15:08.123Z,1004.37
2019-01-22T07:16:08.126Z,1004.39
2019-01-22T07:17:08.131Z,1004.36
2019-01-22T07:18:08.137Z,1004.36
2019-01-22T07:19:08.144Z,1004.35
2019-01-22T07:20:08.151Z,1004.39
2019-01-22T07:21:08.153Z,1004.36
2019-01-22T07:22:08.160Z,1004.33
2019-01-22T07:23:08.446Z,1004.32
2019-01-22T07:24:08.178Z,1004.32
2019-01-22T07:25:08.195Z,1004.29
2019-01-22T07:26:08.186Z,1004.29
2019-01-22T07:27:08.238Z,1004.27
2019-01-22T07:28:08.216Z,1004.24
2019-01-22T07:29:08.206Z,1004.17
2019-01-22T07:30:08.210Z,1004.22
2019-01-22T07:31:08.221Z,1004.11
2019-01-22T07:32:08.227Z,1004.15
2019-01-22T07:33:08.237Z,1004.10
2019-01-22T07:34:08.247Z,1004.11
2019-01-22T07:35:08.239Z,1004.13
2019-01-22T07:36:08.244Z,1004.10
2019-01-22T07:37:08.252Z,1004.08
2019-01-22T07:38:08.281Z,1004.06
2019-01-22T07:39:08.324Z,1004.04
2019-01-22T07:40:08.273Z,1004.01
2019-01-22T07:41:08.284Z,1004.02
2019-01-22T07:42:08.280Z,1003.95
2019-01-22T07:43:08.469Z,1003.98
2019-01-22T07:44:08.290Z,1003.96
2019-01-22T07:45:08.308Z,1003.92
2019-01-22T07:46:08.302Z,1003.96
2019-01-22T07:47:08.312Z,1003.94
2019-01-22T07:48:08.317Z,1003.99
2019-01-22T07:49:08.326Z,1003.92
2019-01-22T07:50:08.331Z,1003.93
2019-01-22T07:51:08.335Z,1003.89
2019-01-22T07:52:08.338Z,1003.88
2019-01-22T07:53:08.349Z,1003.84
2019-01-22T07:54:08.355Z,1003.80
2019-01-22T07:55:08.382Z,1003.78
2019-01-22T07:56:08.366Z,1003.82
2019-01-22T07:57:08.371Z,1003.82
2019-01-22T07:58:08.378Z,1003.81
2019-01-22T07:59:08.379Z,1003.85
2019-01-22T08:00:08.403Z,1003.80
2019-01-22T08:01:08.395Z,1003.78
2019-01-22T08:02:08.421Z,1003.79
2019-01-22T08:03:08.402Z,1003.79
2019-01-22T08:04:08.409Z,1003.80
2019-01-22T08:05:08.418Z,1003.75
2019-01-22T08:06:08.471Z,1003.77
2019-01-22T08:07:08.433Z,1003.70
2019-01-22T08:08:08.435Z,1003.74
2019-01-22T08:09:08.449Z,1003.73
2019-01-22T08:10:08.446Z,1003.66
2019-01-22T08:11:08.668Z,1003.72
2019-01-22T08:13:08.474Z,1003.68
2019-01-22T08:14:08.470Z,1003.67
2019-01-22T08:15:08.476Z,1003.69
2019-01-22T08:16:09.123Z,1003.67
2019-01-22T08:18:08.805Z,1003.66
2019-01-22T08:19:08.504Z,1003.64
2019-01-22T08:20:08.510Z,1003.67
2019-01-22T08:21:08.515Z,1003.67
2019-01-22T08:22:08.520Z,1003.70
2019-01-22T08:23:08.542Z,1003.66
2019-01-22T08:24:08.536Z,1003.65
2019-01-22T08:25:08.543Z,1003.66
2019-01-22T08:26:08.702Z,1003.67
2019-01-22T08:27:08.552Z,1003.65
2019-01-22T08:28:08.562Z,1003.64
2019-01-22T08:29:08.578Z,1003.61
2019-01-22T08:30:08.570Z,1003.58
2019-01-22T08:31:08.581Z,1003.60
2019-01-22T08:32:08.585Z,1003.59
2019-01-22T08:33:08.589Z,1003.56
2019-01-22T08:34:08.619Z,1003.55
2019-01-22T08:35:08.608Z,1003.47
2019-01-22T08:36:08.611Z,1003.49
2019-01-22T08:37:08.619Z,1003.48
2019-01-22T08:38:08.622Z,1003.46
2019-01-22T08:39:08.808Z,1003.42
2019-01-22T08:40:08.750Z,1003.47
2019-01-22T08:41:08.637Z,1003.47
2019-01-22T08:42:08.649Z,1003.51
2019-01-22T08:43:08.650Z,1003.39
2019-01-22T08:44:08.655Z,1003.38
2019-01-22T08:45:08.662Z,1003.37
2019-01-22T08:46:08.673Z,1003.35
2019-01-22T08:47:08.678Z,1003.29
2019-01-22T08:48:08.684Z,1003.32
2019-01-22T08:49:08.694Z,1003.31
2019-01-22T08:50:08.695Z,1003.32
2019-01-22T08:51:08.711Z,1003.28
2019-01-22T08:52:08.710Z,1003.28
2019-01-22T08:53:08.725Z,1003.28
2019-01-22T08:54:08.814Z,1003.24
2019-01-22T08:55:08.805Z,1003.29
2019-01-22T08:56:08.741Z,1003.23
2019-01-22T08:57:08.752Z,1003.24
2019-01-22T08:58:09.017Z,1003.26
2019-01-22T08:59:08.757Z,1003.20
2019-01-22T09:00:08.765Z,1003.21
2019-01-22T09:01:09.067Z,1003.18
2019-01-22T09:02:08.771Z,1003.20
2019-01-22T09:03:08.783Z,1003.18
2019-01-22T09:04:08.790Z,1003.14
2019-01-22T09:05:08.799Z,1003.17
2019-01-22T09:06:08.803Z,1003.20
2019-01-22T09:07:08.818Z,1003.14
2019-01-22T09:08:09.909Z,1003.12
2019-01-22T09:09:08.831Z,1003.15
2019-01-22T09:10:08.830Z,1003.16
2019-01-22T09:11:08.833Z,1003.16
2019-01-22T09:12:10.144Z,1003.11
2019-01-22T09:13:08.847Z,1003.10
2019-01-22T09:14:08.885Z,1003.04
2019-01-22T09:15:08.866Z,1003.05
2019-01-22T09:16:08.865Z,1003.03
2019-01-22T09:17:08.878Z,1002.99
2019-01-22T09:18:08.881Z,1002.96
2019-01-22T09:19:08.899Z,1002.97
2019-01-22T09:20:08.896Z,1002.96
2019-01-22T09:21:08.912Z,1002.95
2019-01-22T09:22:08.913Z,1002.93
2019-01-22T09:23:08.926Z,1002.90
2019-01-22T09:24:08.921Z,1002.90
2019-01-22T09:25:14.691Z,1002.90
2019-01-22T09:26:08.935Z,1002.95
2019-01-22T09:27:08.960Z,1002.89
2019-01-22T09:28:08.958Z,1002.87
2019-01-22T09:29:08.955Z,1002.86
2019-01-22T09:30:09.005Z,1002.82
2019-01-22T09:31:08.971Z,1002.81
2019-01-22T09:32:08.977Z,1002.76
2019-01-22T09:33:11.456Z,1002.76
2019-01-22T09:34:10.132Z,1002.77
2019-01-22T09:35:10.610Z,1002.73
2019-01-22T09:36:09.179Z,1002.71
2019-01-22T09:37:09.021Z,1002.69
2019-01-22T09:38:09.050Z,1002.67
2019-01-22T09:39:09.025Z,1002.65
2019-01-22T09:40:09.032Z,1002.62
2019-01-22T09:41:09.040Z,1002.66
2019-01-22T09:42:09.044Z,1002.60
2019-01-22T09:43:09.053Z,1002.58
2019-01-22T09:44:09.070Z,1002.60
2019-01-22T09:45:09.068Z,1002.59
2019-01-22T09:46:09.072Z,1002.57
2019-01-22T09:47:09.084Z,1002.58
2019-01-22T09:48:10.027Z,1002.58
2019-01-22T09:49:09.479Z,1002.56
2019-01-22T09:50:11.278Z,1002.50
2019-01-22T09:51:09.109Z,1002.50
2019-01-22T09:52:09.116Z,1002.49
2019-01-22T09:53:09.124Z,1002.51
2019-01-22T09:54:09.478Z,1002.50
2019-01-22T09:55:09.146Z,1002.50
2019-01-22T09:56:09.145Z,1002.52
2019-01-22T09:57:09.162Z,1002.46
2019-01-22T09:58:09.157Z,1002.44
2019-01-22T09:59:09.170Z,1002.40
2019-01-22T10:00:09.173Z,1002.43
2019-01-22T10:01:09.182Z,1002.38
2019-01-22T10:02:09.193Z,1002.35
2019-01-22T10:03:09.198Z,1002.32
2019-01-22T10:04:09.203Z,1002.29
2019-01-22T10:05:09.236Z,1002.28
2019-01-22T10:06:09.239Z,1002.29
2019-01-22T10:07:09.242Z,1002.24
2019-01-22T10:08:09.251Z,1002.28
2019-01-22T10:09:09.237Z,1002.24
2019-01-22T10:10:09.264Z,1002.24
2019-01-22T10:11:09.255Z,1002.23
2019-01-22T10:12:09.263Z,1002.18
2019-01-22T10:13:09.273Z,1002.17
2019-01-22T10:14:09.284Z,1002.14
2019-01-22T10:15:09.291Z,1002.11
2019-01-22T10:16:09.319Z,1002.07
2019-01-22T10:17:09.302Z,1002.06
2019-01-22T10:18:09.308Z,1002.07
2019-01-22T10:19:09.324Z,1002.04
2019-01-22T10:20:09.397Z,1002.03
2019-01-22T10:21:09.413Z,1001.99
2019-01-22T10:22:09.337Z,1001.96
2019-01-22T10:23:09.347Z,1001.97
2019-01-22T10:24:09.357Z,1001.90
2019-01-22T10:25:09.360Z,1001.91
2019-01-22T10:26:09.372Z,1001.87
2019-01-22T10:27:09.386Z,1001.82
2019-01-22T10:28:09.382Z,1001.86
2019-01-22T10:29:09.486Z,1001.80
2019-01-22T10:30:09.400Z,1001.80
2019-01-22T10:31:09.462Z,1001.77
2019-01-22T10:32:09.468Z,1001.75
2019-01-22T10:33:09.424Z,1001.68
2019-01-22T10:34:09.426Z,1001.63
2019-01-22T10:35:09.434Z,1001.63
2019-01-22T10:36:09.443Z,1001.60
2019-01-22T10:37:09.463Z,1001.65
2019-01-22T10:38:09.481Z,1001.61
2019-01-22T10:39:09.467Z,1001.62
2019-01-22T10:40:11.894Z,1001.60
2019-01-22T10:41:09.478Z,1001.61
2019-01-22T10:42:09.488Z,1001.63
2019-01-22T10:43:09.651Z,1001.53
2019-01-22T10:44:09.513Z,1001.53
2019-01-22T10:45:09.509Z,1001.52
2019-01-22T10:46:09.521Z,1001.48
2019-01-22T10:47:09.542Z,1001.45
2019-01-22T10:48:09.600Z,1001.46
2019-01-22T10:49:09.570Z,1001.39
2019-01-22T10:50:09.551Z,1001.37
2019-01-22T10:51:09.869Z,1001.34
2019-01-22T10:52:10.513Z,1001.32
2019-01-22T10:53:09.715Z,1001.32
2019-01-22T10:54:09.581Z,1001.26
2019-01-22T10:55:09.653Z,1001.24
2019-01-22T10:56:09.599Z,1001.24
2019-01-22T10:57:09.613Z,1001.23
2019-01-22T10:58:09.615Z,1001.23
2019-01-22T10:59:09.622Z,1001.18
2019-01-22T11:00:09.633Z,1001.18
2019-01-22T11:01:09.939Z,1001.14
2019-01-22T11:02:09.687Z,1001.18
2019-01-22T11:03:09.712Z,1001.09
2019-01-22T11:04:10.169Z,1001.09
2019-01-22T11:05:09.671Z,1001.02
2019-01-22T11:06:09.687Z,1001.04
2019-01-22T11:07:09.685Z,1001.03
2019-01-22T11:08:09.716Z,1000.99
2019-01-22T11:09:09.707Z,1000.99
2019-01-22T11:10:09.720Z,1000.96
2019-01-22T11:11:09.753Z,1000.97
2019-01-22T11:12:09.732Z,1000.95
2019-01-22T11:13:09.740Z,1000.89
2019-01-22T11:14:09.752Z,1000.90
2019-01-22T11:15:09.826Z,1000.88
2019-01-22T11:16:09.759Z,1000.93
2019-01-22T11:17:09.765Z,1000.90
2019-01-22T11:18:09.775Z,1000.90
2019-01-22T11:19:09.797Z,1000.92
2019-01-22T11:20:09.827Z,1000.89
2019-01-22T11:21:09.803Z,1000.94
2019-01-22T11:22:09.810Z,1000.93
2019-01-22T11:23:09.826Z,1000.91
2019-01-22T11:24:09.861Z,1000.90
2019-01-22T11:25:09.841Z,1000.88
2019-01-22T11:26:09.858Z,1000.83
2019-01-22T11:27:09.864Z,1000.83
2019-01-22T11:28:09.863Z,1000.79
2019-01-22T11:29:09.893Z,1000.79
2019-01-22T11:30:09.880Z,1000.70
2019-01-22T11:31:09.891Z,1000.67
2019-01-22T11:32:09.914Z,1000.66
2019-01-22T11:33:09.903Z,1000.62
2019-01-22T11:34:10.216Z,1000.62
2019-01-22T11:35:09.937Z,1000.61
2019-01-22T11:36:09.979Z,1000.55
2019-01-22T11:37:09.946Z,1000.56
2019-01-22T11:38:12.647Z,1000.55
2019-01-22T11:39:09.961Z,1000.52
2019-01-22T11:40:09.961Z,1000.53
2019-01-22T11:41:09.992Z,1000.46
2019-01-22T11:42:09.995Z,1000.49
2019-01-22T11:43:09.989Z,1000.47
2019-01-22T11:44:09.998Z,1000.44
2019-01-22T11:45:10.009Z,1000.36
2019-01-22T11:46:10.017Z,1000.32
2019-01-22T11:47:10.037Z,1000.36
2019-01-22T11:48:10.047Z,1000.36
2019-01-22T11:49:10.573Z,1000.34
2019-01-22T11:50:10.287Z,1000.38
2019-01-22T11:52:10.275Z,1000.35
2019-01-22T11:53:10.249Z,1000.32
2019-01-22T11:54:10.286Z,1000.27
2019-01-22T11:55:10.349Z,1000.24
2019-01-22T11:56:10.318Z,1000.27
2019-01-22T11:57:10.112Z,1000.23
2019-01-22T11:58:10.247Z,1000.23
2019-01-22T11:59:10.139Z,1000.19
2019-01-22T12:00:10.166Z,1000.18
2019-01-22T12:01:10.153Z,1000.16
2019-01-22T12:02:10.149Z,1000.12
2019-01-22T12:03:10.173Z,1000.11
2019-01-22T12:04:10.175Z,1000.13
2019-01-22T12:05:10.174Z,1000.16
2019-01-22T12:06:10.188Z,1000.11
2019-01-22T12:07:10.452Z,1000.04
2019-01-22T12:08:10.214Z,1000.02
2019-01-22T12:09:10.209Z,1000.01